Time;durP1;ratioP1;P1;durP2;ratioP2;P2;SDS_P1;SDS_P2;PMS_P1;PMS_P2;Temp;Humidity;BMP_temperature;BMP_pressure;BME280_temperature;BME280_humidity;BME280_pressure;Samples;Min_cycle;Max_cycle;Signal;HPM_P1;HPM_P2
2023/02/26 00:02:24;;;;;;;1.30;0.57;;;0.70;99.90;;;;;;5063476;28;20047;-60
2023/02/26 00:04:50;;;;;;;1.42;1.00;;;0.70;99.90;;;;;;5075567;28;20035;-59
2023/02/26 00:07:15;;;;;;;2.72;0.57;;;0.70;99.90;;;;;;5081387;28;20053;-61
2023/02/26 00:09:41;;;;;;;1.67;0.70;;;0.70;99.90;;;;;;5055642;28;20028;-60
2023/02/26 00:12:09;;;;;;;5.40;0.75;;;0.80;99.90;;;;;;5073438;28;20404;-59
2023/02/26 00:14:35;;;;;;;3.63;0.93;;;0.80;99.90;;;;;;5079950;28;20028;-59
2023/02/26 00:17:39;;;;;;;3.17;0.90;;;0.80;99.90;;;;;;5086126;28;20036;-60
2023/02/26 00:20:06;;;;;;;0.73;0.60;;;0.80;99.90;;;;;;5057699;28;20103;-62
2023/02/26 00:22:32;;;;;;;2.17;0.57;;;0.80;99.90;;;;;;5083991;28;20028;-56
2023/02/26 00:24:57;;;;;;;1.70;0.85;;;0.70;99.90;;;;;;5062248;28;20403;-60
2023/02/26 00:27:23;;;;;;;1.58;0.70;;;0.70;99.90;;;;;;5081243;28;20463;-59
2023/02/26 00:29:48;;;;;;;2.47;0.90;;;0.70;99.90;;;;;;5069162;28;20028;-59
2023/02/26 00:32:16;;;;;;;0.88;0.70;;;0.70;99.90;;;;;;5069507;28;20035;-60
2023/02/26 00:34:43;;;;;;;4.00;1.25;;;0.70;99.90;;;;;;5067928;28;20032;-60
2023/02/26 00:37:50;;;;;;;4.05;1.38;;;0.70;99.90;;;;;;5082739;28;20535;-60
2023/02/26 00:40:40;;;;;;;3.67;1.35;;;0.60;99.90;;;;;;5061648;28;20063;-60
2023/02/26 00:43:09;;;;;;;2.65;0.88;;;0.60;99.90;;;;;;5044409;28;20029;-60
2023/02/26 00:45:37;;;;;;;3.63;0.90;;;0.60;99.90;;;;;;5074511;28;20060;-60
2023/02/26 00:48:52;;;;;;;3.17;1.00;;;0.60;99.90;;;;;;5063822;28;20036;-61
2023/02/26 00:51:38;;;;;;;4.32;1.00;;;0.60;99.90;;;;;;5075987;28;20040;-60
2023/02/26 00:54:12;;;;;;;3.85;1.40;;;0.60;99.90;;;;;;5060539;28;20032;-59
2023/02/26 00:56:37;;;;;;;1.80;1.00;;;0.60;99.90;;;;;;5048225;28;20047;-61
2023/02/26 00:59:03;;;;;;;5.07;1.27;;;0.60;99.90;;;;;;5068020;28;20033;-60
2023/02/26 01:01:28;;;;;;;2.97;0.90;;;0.60;99.90;;;;;;5067541;28;20689;-60
2023/02/26 01:03:54;;;;;;;3.28;1.20;;;0.50;99.90;;;;;;5071370;28;20040;-59
2023/02/26 01:06:24;;;;;;;2.10;1.00;;;0.60;99.90;;;;;;5079788;28;20035;-60
2023/02/26 01:09:04;;;;;;;1.83;0.70;;;0.60;99.90;;;;;;5051301;28;20040;-61
2023/02/26 01:11:33;;;;;;;1.95;0.82;;;0.60;99.90;;;;;;5070470;28;20032;-60
2023/02/26 01:13:58;;;;;;;2.45;0.90;;;0.60;99.90;;;;;;5081663;28;20036;-62
2023/02/26 01:16:27;;;;;;;2.55;0.63;;;0.60;99.90;;;;;;5068708;28;21986;-61
2023/02/26 01:19:08;;;;;;;1.10;0.80;;;0.60;99.90;;;;;;5064132;28;20083;-60
2023/02/26 01:21:38;;;;;;;2.83;0.80;;;0.70;99.90;;;;;;5059194;28;20052;-60
2023/02/26 01:24:10;;;;;;;4.53;1.27;;;0.70;99.90;;;;;;5075297;28;20031;-61
2023/02/26 01:26:35;;;;;;;1.92;0.70;;;0.70;99.90;;;;;;5085151;28;20031;-61
2023/02/26 01:29:01;;;;;;;2.50;0.70;;;0.70;99.90;;;;;;5067764;28;20036;-61
2023/02/26 01:31:39;;;;;;;4.15;1.17;;;0.70;99.90;;;;;;5072257;28;20062;-61
2023/02/26 01:34:33;;;;;;;2.45;0.93;;;0.70;99.90;;;;;;5069497;28;20037;-60
2023/02/26 01:37:21;;;;;;;4.85;0.80;;;0.70;99.90;;;;;;5064954;28;20116;-60
2023/02/26 01:39:51;;;;;;;3.42;0.93;;;0.70;99.90;;;;;;5082033;28;20480;-60
2023/02/26 01:42:20;;;;;;;3.53;0.70;;;0.70;99.90;;;;;;5066968;28;20037;-59
2023/02/26 01:44:54;;;;;;;2.92;0.90;;;0.70;99.90;;;;;;5068609;28;20489;-61
2023/02/26 01:47:28;;;;;;;4.63;0.93;;;0.70;99.90;;;;;;5063142;28;20046;-60
2023/02/26 01:49:54;;;;;;;1.63;0.82;;;0.70;99.90;;;;;;5074370;28;20016;-61
2023/02/26 01:53:01;;;;;;;0.85;0.50;;;0.70;99.90;;;;;;5068023;28;20454;-60
2023/02/26 01:55:28;;;;;;;4.00;0.95;;;0.70;99.90;;;;;;5057628;28;20059;-60
2023/02/26 01:57:58;;;;;;;2.88;0.80;;;0.70;99.90;;;;;;5078690;28;20033;-59
2023/02/26 02:00:23;;;;;;;2.78;0.80;;;0.70;99.90;;;;;;5086499;28;20743;-60
2023/02/26 02:02:49;;;;;;;1.40;0.75;;;0.70;99.90;;;;;;5077764;28;20036;-60
2023/02/26 02:05:50;;;;;;;2.10;0.65;;;0.70;99.90;;;;;;5056375;28;20020;-60
2023/02/26 02:08:16;;;;;;;1.63;0.93;;;0.80;99.90;;;;;;5050748;28;20505;-60
2023/02/26 02:10:47;;;;;;;4.47;0.88;;;0.80;99.90;;;;;;5072607;28;20103;-60
2023/02/26 02:13:30;;;;;;;1.35;0.63;;;0.80;99.90;;;;;;5071805;28;20073;-61
2023/02/26 02:16:30;;;;;;;3.17;0.80;;;0.80;99.90;;;;;;5079619;28;20016;-61
2023/02/26 02:19:27;;;;;;;2.72;0.50;;;0.80;99.90;;;;;;5081030;28;20080;-61
2023/02/26 02:22:10;;;;;;;;;;;0.80;99.90;;;;;;5064107;28;20555;-60
2023/02/26 02:25:13;;;;;;;2.05;1.00;;;0.70;99.90;;;;;;5052977;28;20474;-60
2023/02/26 02:28:04;;;;;;;4.97;1.05;;;0.70;99.90;;;;;;5051559;28;20024;-60
2023/02/26 02:30:51;;;;;;;2.42;1.40;;;0.70;99.90;;;;;;5061675;28;20066;-60
2023/02/26 02:33:22;;;;;;;3.45;0.70;;;0.60;99.90;;;;;;5048271;28;20029;-61
2023/02/26 02:36:00;;;;;;;1.10;0.63;;;0.70;99.90;;;;;;5063906;28;20024;-61
2023/02/26 02:38:33;;;;;;;1.30;0.73;;;0.70;99.90;;;;;;5048194;28;20028;-60
2023/02/26 02:41:10;;;;;;;4.50;1.00;;;0.70;99.90;;;;;;5066441;28;20040;-61
2023/02/26 02:43:37;;;;;;;5.75;1.00;;;0.70;99.90;;;;;;5048031;28;20040;-60
2023/02/26 02:46:06;;;;;;;4.43;0.85;;;0.60;99.90;;;;;;5065818;28;20137;-60
2023/02/26 02:48:47;;;;;;;2.03;0.80;;;0.60;99.90;;;;;;5086770;28;20498;-60
2023/02/26 02:51:24;;;;;;;5.80;1.20;;;0.70;99.90;;;;;;5065628;28;20063;-60
2023/02/26 02:54:06;;;;;;;2.55;1.10;;;0.70;99.90;;;;;;5081821;28;20548;-61
2023/02/26 02:56:37;;;;;;;2.75;0.65;;;0.60;99.90;;;;;;5063838;28;20043;-60
2023/02/26 02:59:16;;;;;;;2.92;1.23;;;0.60;99.90;;;;;;5047855;28;20044;-60
2023/02/26 03:01:45;;;;;;;2.40;0.90;;;0.60;99.90;;;;;;5066381;28;20082;-60
2023/02/26 03:04:14;;;;;;;2.83;0.77;;;0.60;99.90;;;;;;5067262;28;20046;-61
2023/02/26 03:06:40;;;;;;;4.50;0.90;;;0.60;99.90;;;;;;5071911;28;20037;-60
2023/02/26 03:09:08;;;;;;;2.40;0.70;;;0.60;99.90;;;;;;5065914;28;20101;-61
2023/02/26 03:11:33;;;;;;;1.98;0.93;;;0.60;99.90;;;;;;5072253;28;20028;-61
2023/02/26 03:13:59;;;;;;;2.10;0.60;;;0.60;99.90;;;;;;5084200;28;20081;-61
2023/02/26 03:16:42;;;;;;;2.40;0.90;;;0.60;99.90;;;;;;5067167;28;20028;-61
2023/02/26 03:19:22;;;;;;;2.13;0.70;;;0.50;99.90;;;;;;5063996;28;20522;-60
2023/02/26 03:22:13;;;;;;;2.25;0.60;;;0.60;99.90;;;;;;5085336;28;20117;-61
2023/02/26 03:24:53;;;;;;;2.90;0.73;;;0.50;99.90;;;;;;5053171;28;20529;-61
2023/02/26 03:27:29;;;;;;;2.55;0.60;;;0.60;99.90;;;;;;5056942;28;20031;-60
2023/02/26 03:30:01;;;;;;;3.13;0.80;;;0.60;99.90;;;;;;5069597;28;20524;-61
2023/02/26 03:32:41;;;;;;;3.55;0.60;;;0.60;99.90;;;;;;5060811;28;20028;-61
2023/02/26 03:35:26;;;;;;;2.58;1.38;;;0.60;99.90;;;;;;5070000;28;20120;-62
2023/02/26 03:37:56;;;;;;;4.22;0.77;;;0.60;99.90;;;;;;5055712;28;20050;-60
2023/02/26 03:40:30;;;;;;;1.17;0.50;;;0.60;99.90;;;;;;5045995;28;20059;-60
2023/02/26 03:43:03;;;;;;;1.52;0.65;;;0.70;99.90;;;;;;5056214;28;20021;-61
2023/02/26 03:45:38;;;;;;;2.78;0.73;;;0.60;99.90;;;;;;5057200;28;20036;-60
2023/02/26 03:48:06;;;;;;;2.72;0.90;;;0.60;99.90;;;;;;5063148;28;20036;-61
2023/02/26 03:50:38;;;;;;;2.00;0.80;;;0.60;99.90;;;;;;5077163;28;20024;-61
2023/02/26 03:53:09;;;;;;;3.63;1.63;;;0.70;99.90;;;;;;5086470;28;20070;-62
2023/02/26 03:55:40;;;;;;;1.05;0.52;;;0.70;99.90;;;;;;5059963;28;20031;-60
2023/02/26 03:58:05;;;;;;;2.22;0.50;;;0.70;99.90;;;;;;5072993;28;20044;-60
2023/02/26 04:00:33;;;;;;;4.40;0.63;;;0.70;99.90;;;;;;5088653;28;20050;-61
2023/02/26 04:03:10;;;;;;;1.02;0.40;;;0.70;99.90;;;;;;5054559;28;20626;-61
2023/02/26 04:05:41;;;;;;;1.75;0.30;;;0.70;99.90;;;;;;5055540;28;20044;-62
2023/02/26 04:08:06;;;;;;;1.42;0.73;;;0.70;99.90;;;;;;5059440;28;20044;-61
2023/02/26 04:10:40;;;;;;;2.72;0.70;;;0.80;99.90;;;;;;5088516;28;20097;-63
2023/02/26 04:13:06;;;;;;;1.30;0.50;;;0.80;99.90;;;;;;5059845;28;20029;-62
2023/02/26 04:15:31;;;;;;;2.03;0.55;;;0.80;99.90;;;;;;5077288;28;20565;-60
2023/02/26 04:17:57;;;;;;;0.75;0.50;;;0.80;99.90;;;;;;5074726;28;20048;-60
2023/02/26 04:20:22;;;;;;;2.55;0.70;;;0.80;99.90;;;;;;5086597;28;20035;-58
2023/02/26 04:22:48;;;;;;;0.40;0.35;;;0.70;99.90;;;;;;5066599;28;20428;-55
2023/02/26 04:25:13;;;;;;;2.20;0.65;;;0.70;99.90;;;;;;5079642;28;20029;-57
2023/02/26 04:27:39;;;;;;;4.88;0.80;;;0.70;99.90;;;;;;5072707;28;20029;-57
2023/02/26 04:30:06;;;;;;;0.98;0.40;;;0.70;99.90;;;;;;5086995;28;20035;-57
2023/02/26 04:32:31;;;;;;;1.83;0.50;;;0.70;99.90;;;;;;5055110;28;20060;-56
2023/02/26 04:34:57;;;;;;;1.92;0.40;;;0.70;99.90;;;;;;5066215;28;20463;-57
2023/02/26 04:37:22;;;;;;;1.13;0.47;;;0.70;99.90;;;;;;5064536;28;20115;-57
2023/02/26 04:39:48;;;;;;;1.80;0.73;;;0.70;99.90;;;;;;5067692;28;20024;-59
2023/02/26 04:42:13;;;;;;;4.53;0.82;;;0.70;99.90;;;;;;5085741;28;20728;-57
2023/02/26 04:44:39;;;;;;;2.20;0.68;;;0.70;99.90;;;;;;5067807;28;20032;-58
2023/02/26 04:47:04;;;;;;;4.10;1.25;;;0.70;99.90;;;;;;5084285;28;20035;-58
2023/02/26 04:49:30;;;;;;;2.65;0.57;;;0.70;99.90;;;;;;5068713;28;20040;-57
2023/02/26 04:51:55;;;;;;;5.78;0.60;;;0.70;99.90;;;;;;5085964;28;20108;-57
2023/02/26 04:54:21;;;;;;;3.97;1.23;;;0.70;99.90;;;;;;5084702;28;20052;-58
2023/02/26 04:56:46;;;;;;;4.40;0.70;;;0.70;99.90;;;;;;5073801;28;20520;-60
2023/02/26 04:59:12;;;;;;;1.88;0.47;;;0.70;99.90;;;;;;5048428;28;20040;-57
2023/02/26 05:01:37;;;;;;;1.95;0.40;;;0.70;99.90;;;;;;5065469;28;20135;-58
2023/02/26 05:04:03;;;;;;;1.42;0.50;;;0.70;99.90;;;;;;5066443;28;20369;-58
2023/02/26 05:06:28;;;;;;;3.03;0.70;;;0.70;99.90;;;;;;5061045;28;20040;-58
2023/02/26 05:08:54;;;;;;;1.08;0.55;;;0.70;99.90;;;;;;5068015;28;20052;-56
2023/02/26 05:11:19;;;;;;;6.10;0.82;;;0.70;99.90;;;;;;5081394;28;20040;-57
2023/02/26 05:13:45;;;;;;;1.77;0.70;;;0.70;99.90;;;;;;5048120;28;20025;-57
2023/02/26 05:16:10;;;;;;;4.93;0.57;;;0.70;99.90;;;;;;5067509;28;20500;-58
2023/02/26 05:18:36;;;;;;;1.60;0.60;;;0.70;99.90;;;;;;5088146;28;20024;-58
2023/02/26 05:21:02;;;;;;;3.13;0.73;;;0.70;99.90;;;;;;5068445;28;20037;-57
2023/02/26 05:23:28;;;;;;;1.60;0.50;;;0.70;99.90;;;;;;5066275;28;20063;-57
2023/02/26 05:25:55;;;;;;;3.28;0.68;;;0.70;99.90;;;;;;5071340;28;20575;-58
2023/02/26 05:28:21;;;;;;;1.65;0.55;;;0.80;99.90;;;;;;5066721;28;20122;-59
2023/02/26 05:30:47;;;;;;;2.88;0.60;;;0.70;99.90;;;;;;5087299;28;20492;-57
2023/02/26 05:33:12;;;;;;;3.67;0.80;;;0.70;99.90;;;;;;5049093;28;20025;-57
2023/02/26 05:35:38;;;;;;;2.53;0.80;;;0.70;99.90;;;;;;5067216;28;20520;-58
2023/02/26 05:38:03;;;;;;;4.85;0.70;;;0.60;99.90;;;;;;5067669;28;20108;-60
2023/02/26 05:40:28;;;;;;;3.20;0.93;;;0.60;99.90;;;;;;5087577;28;20036;-57
2023/02/26 05:42:54;;;;;;;5.50;1.25;;;0.60;99.90;;;;;;5051365;28;20057;-58
2023/02/26 05:45:19;;;;;;;4.38;0.90;;;0.50;99.90;;;;;;5066643;28;20480;-58
2023/02/26 05:47:45;;;;;;;1.63;0.60;;;0.50;99.90;;;;;;5071127;28;20033;-56
2023/02/26 05:50:11;;;;;;;2.92;0.60;;;0.50;99.90;;;;;;5087448;28;20075;-56
2023/02/26 05:52:36;;;;;;;1.73;0.60;;;0.60;99.90;;;;;;5064351;28;20054;-55
2023/02/26 05:55:03;;;;;;;4.40;0.60;;;0.60;99.90;;;;;;5073957;28;20532;-57
2023/02/26 05:57:29;;;;;;;4.93;1.45;;;0.60;99.90;;;;;;5077212;28;20040;-55
2023/02/26 05:59:54;;;;;;;2.97;1.02;;;0.60;99.90;;;;;;5071999;28;20032;-55
2023/02/26 06:02:20;;;;;;;2.55;0.60;;;0.60;99.90;;;;;;5067975;28;20037;-57
2023/02/26 06:04:45;;;;;;;5.57;0.80;;;0.60;99.90;;;;;;5073833;28;20083;-58
2023/02/26 06:07:11;;;;;;;2.20;0.90;;;0.60;99.90;;;;;;5068360;28;20179;-58
2023/02/26 06:09:36;;;;;;;1.60;0.70;;;0.60;99.90;;;;;;5061769;28;20032;-58
2023/02/26 06:12:02;;;;;;;1.17;0.60;;;0.50;99.90;;;;;;5072583;28;20743;-57
2023/02/26 06:14:28;;;;;;;5.32;1.20;;;0.50;99.90;;;;;;5070569;28;20220;-58
2023/02/26 06:16:53;;;;;;;2.13;0.60;;;0.50;99.90;;;;;;5073645;28;20033;-57
2023/02/26 06:19:20;;;;;;;2.55;0.68;;;0.50;99.90;;;;;;5055459;28;20023;-57
2023/02/26 06:21:46;;;;;;;2.47;0.70;;;0.50;99.90;;;;;;5076203;28;20036;-56
2023/02/26 06:24:11;;;;;;;1.52;0.45;;;0.60;99.90;;;;;;5050991;28;20075;-62
2023/02/26 06:26:37;;;;;;;1.63;0.60;;;0.70;99.90;;;;;;5066888;28;20085;-57
2023/02/26 06:29:02;;;;;;;1.52;0.55;;;0.60;99.90;;;;;;5051326;28;20108;-68
2023/02/26 06:31:28;;;;;;;4.07;0.90;;;0.60;99.90;;;;;;5069565;28;20040;-68
2023/02/26 06:33:53;;;;;;;2.10;0.57;;;0.60;99.90;;;;;;5071190;28;20032;-68
2023/02/26 06:36:19;;;;;;;4.05;0.60;;;0.60;99.90;;;;;;5090217;28;20103;-68
2023/02/26 06:38:44;;;;;;;3.20;0.60;;;0.60;99.90;;;;;;5053945;28;20408;-68
2023/02/26 06:41:11;;;;;;;1.48;0.63;;;0.70;99.90;;;;;;5067895;28;20039;-67
2023/02/26 06:43:36;;;;;;;3.17;1.10;;;0.70;99.90;;;;;;5072294;28;20067;-67
2023/02/26 06:46:02;;;;;;;4.20;1.30;;;0.70;99.90;;;;;;5085768;28;20517;-68
2023/02/26 06:48:27;;;;;;;7.05;2.05;;;0.70;99.90;;;;;;5074031;28;20033;-68
2023/02/26 06:50:53;;;;;;;4.10;1.58;;;0.80;99.90;;;;;;5086637;28;20039;-68
2023/02/26 06:53:18;;;;;;;2.80;1.30;;;0.80;99.90;;;;;;5070514;28;20040;-69
2023/02/26 06:55:45;;;;;;;2.90;1.00;;;0.80;99.90;;;;;;5090019;28;20405;-67
2023/02/26 06:58:11;;;;;;;2.05;0.90;;;0.80;99.90;;;;;;5068486;28;20040;-67
2023/02/26 07:00:38;;;;;;;2.70;1.30;;;0.70;99.90;;;;;;5070465;28;20043;-68
2023/02/26 07:03:04;;;;;;;1.25;0.80;;;1.10;99.90;;;;;;5080439;28;20024;-68
2023/02/26 07:05:29;;;;;;;0.93;0.70;;;1.70;99.90;;;;;;5073623;28;20107;-68
2023/02/26 07:07:55;;;;;;;2.53;1.00;;;2.20;99.90;;;;;;5067686;28;20167;-68
2023/02/26 07:10:20;;;;;;;1.17;0.47;;;2.70;98.90;;;;;;5088343;28;20064;-67
2023/02/26 07:12:47;;;;;;;0.93;0.60;;;3.40;99.90;;;;;;5064650;28;20029;-68
2023/02/26 07:15:13;;;;;;;3.42;0.75;;;4.00;95.60;;;;;;5069154;28;20143;-67
2023/02/26 07:17:38;;;;;;;2.08;0.90;;;4.50;91.80;;;;;;5074332;28;20115;-68
2023/02/26 07:20:08;;;;;;;2.78;1.02;;;4.90;89.00;;;;;;5064549;28;20032;-68
2023/02/26 07:22:34;;;;;;;1.20;0.52;;;5.00;82.50;;;;;;5079492;28;20040;-68
2023/02/26 07:25:00;;;;;;;2.85;1.13;;;5.20;81.30;;;;;;5073245;28;20066;-68
2023/02/26 07:27:26;;;;;;;4.18;1.77;;;4.90;67.70;;;;;;5076604;28;20078;-68
2023/02/26 07:29:51;;;;;;;3.70;1.30;;;4.70;77.10;;;;;;5075542;28;20024;-68
2023/02/26 07:32:17;;;;;;;2.03;0.88;;;4.70;74.80;;;;;;5073345;28;20021;-68
2023/02/26 07:34:42;;;;;;;2.72;1.20;;;4.50;78.50;;;;;;5084642;28;20739;-68
2023/02/26 07:37:08;;;;;;;7.25;1.40;;;4.50;74.60;;;;;;5087507;28;20020;-66
2023/02/26 07:39:33;;;;;;;4.75;1.48;;;4.30;74.10;;;;;;5068274;28;20138;-68
2023/02/26 07:41:59;;;;;;;2.17;1.27;;;4.30;81.70;;;;;;5076896;28;20028;-68
2023/02/26 07:44:24;;;;;;;3.47;1.55;;;4.50;73.00;;;;;;5073773;28;20032;-68
2023/02/26 07:46:50;;;;;;;3.90;1.30;;;4.50;70.30;;;;;;5083605;28;20040;-68
2023/02/26 07:49:15;;;;;;;4.43;1.75;;;4.40;72.80;;;;;;5086326;28;20047;-68
2023/02/26 07:51:44;;;;;;;3.88;1.55;;;4.40;71.70;;;;;;5066876;28;20024;-68
2023/02/26 07:54:11;;;;;;;5.55;1.30;;;4.50;75.30;;;;;;5066413;28;20054;-68
2023/02/26 07:56:37;;;;;;;2.10;0.85;;;4.70;73.20;;;;;;5060759;28;20086;-68
2023/02/26 07:59:03;;;;;;;1.10;0.73;;;4.60;75.80;;;;;;5075808;28;20031;-68
2023/02/26 08:01:28;;;;;;;2.05;0.88;;;4.60;72.90;;;;;;5067826;28;20564;-67
2023/02/26 08:03:54;;;;;;;3.80;2.38;;;4.50;71.30;;;;;;5088841;28;20025;-68
2023/02/26 08:06:19;;;;;;;6.53;2.03;;;4.50;74.10;;;;;;5052886;28;20035;-67
2023/02/26 08:08:45;;;;;;;5.03;2.53;;;4.60;70.70;;;;;;5063349;28;20454;-68
2023/02/26 08:11:10;;;;;;;6.20;2.90;;;4.20;69.60;;;;;;5069861;28;20032;-67
2023/02/26 08:13:36;;;;;;;4.80;1.63;;;4.00;70.90;;;;;;5068533;28;20056;-67
2023/02/26 08:16:01;;;;;;;3.67;2.20;;;3.90;76.70;;;;;;5087649;28;20024;-68
2023/02/26 08:18:26;;;;;;;0.60;0.60;;;4.10;79.60;;;;;;5050856;28;20084;-68
2023/02/26 08:20:52;;;;;;;1.55;0.98;;;4.40;76.40;;;;;;5066231;28;20779;-68
2023/02/26 08:23:18;;;;;;;1.67;0.70;;;4.40;71.80;;;;;;5067926;28;20020;-69
2023/02/26 08:25:44;;;;;;;2.53;1.02;;;4.30;72.40;;;;;;5067428;28;20032;-68
2023/02/26 08:28:10;;;;;;;2.92;1.10;;;4.20;69.10;;;;;;5087044;28;20039;-68
2023/02/26 08:30:35;;;;;;;2.22;0.70;;;4.10;70.40;;;;;;5055611;28;20020;-68
2023/02/26 08:33:01;;;;;;;4.88;1.25;;;4.40;78.20;;;;;;5086737;28;20031;-69
2023/02/26 08:35:26;;;;;;;2.75;1.15;;;4.60;69.50;;;;;;5053107;28;20081;-69
2023/02/26 08:37:52;;;;;;;2.83;1.00;;;4.60;71.40;;;;;;5067055;28;20055;-69
2023/02/26 08:40:19;;;;;;;3.15;0.75;;;4.60;69.20;;;;;;5065108;28;20040;-67
2023/02/26 08:42:44;;;;;;;2.47;0.70;;;4.30;65.10;;;;;;5067354;28;20028;-67
2023/02/26 08:45:10;;;;;;;3.05;0.90;;;4.10;69.00;;;;;;5071857;28;20576;-68
2023/02/26 08:47:36;;;;;;;3.00;0.90;;;4.00;69.00;;;;;;5064922;28;20028;-67
2023/02/26 08:50:02;;;;;;;2.97;1.38;;;4.00;67.80;;;;;;5069678;28;20036;-67
2023/02/26 08:52:28;;;;;;;2.88;1.00;;;4.10;70.20;;;;;;5061747;28;20420;-66
2023/02/26 08:54:53;;;;;;;3.33;1.50;;;4.30;68.90;;;;;;5074190;28;20043;-65
2023/02/26 08:57:19;;;;;;;1.52;0.80;;;4.30;66.40;;;;;;5063172;28;20028;-66
2023/02/26 08:59:44;;;;;;;4.95;1.10;;;4.20;68.10;;;;;;5078143;28;20028;-65
2023/02/26 09:02:11;;;;;;;2.45;0.80;;;4.20;67.10;;;;;;5066836;28;20028;-65
2023/02/26 09:04:36;;;;;;;4.97;1.40;;;4.40;70.30;;;;;;5066450;28;20221;-66
2023/02/26 09:07:02;;;;;;;4.15;1.10;;;4.50;68.30;;;;;;5053505;28;20028;-65
2023/02/26 09:09:27;;;;;;;2.95;0.95;;;4.80;65.10;;;;;;5086627;28;20097;-65
2023/02/26 09:11:53;;;;;;;2.10;1.25;;;4.50;60.50;;;;;;5065158;28;20036;-65
2023/02/26 09:14:18;;;;;;;3.38;1.30;;;4.10;64.60;;;;;;5066251;28;20030;-64
2023/02/26 09:16:44;;;;;;;5.25;1.48;;;4.30;66.10;;;;;;5082180;28;20028;-65
2023/02/26 09:19:09;;;;;;;2.45;1.15;;;4.40;66.70;;;;;;5083537;28;20104;-65
2023/02/26 09:21:35;;;;;;;4.47;1.50;;;4.70;62.40;;;;;;5066593;28;20492;-65
2023/02/26 09:24:01;;;;;;;2.75;1.17;;;4.80;60.00;;;;;;5077898;28;20119;-65
2023/02/26 09:26:26;;;;;;;3.17;1.15;;;4.70;59.80;;;;;;5063962;28;20032;-66
2023/02/26 09:28:52;;;;;;;2.42;0.75;;;4.60;60.00;;;;;;5084386;28;20028;-67
2023/02/26 09:31:17;;;;;;;3.65;0.98;;;4.60;61.00;;;;;;5070882;28;20033;-66
2023/02/26 09:33:43;;;;;;;3.55;1.05;;;4.70;60.50;;;;;;5080279;28;20476;-66
2023/02/26 09:36:09;;;;;;;5.88;1.15;;;4.30;59.20;;;;;;5070929;28;20025;-66
2023/02/26 09:38:35;;;;;;;2.55;1.20;;;4.40;60.30;;;;;;5050423;28;20058;-67
2023/02/26 09:41:08;;;;;;;5.82;1.33;;;4.50;60.00;;;;;;5065211;28;20024;-68
2023/02/26 09:44:19;;;;;;;2.30;1.08;;;4.40;59.00;;;;;;5062846;28;20056;-67
2023/02/26 09:46:56;;;;;;;2.42;0.90;;;4.50;59.50;;;;;;5058130;28;20055;-66
2023/02/26 09:49:34;;;;;;;2.70;0.80;;;4.60;58.80;;;;;;5085889;28;20579;-67
2023/02/26 09:52:22;;;;;;;3.42;1.02;;;4.80;57.00;;;;;;5070057;28;20016;-67
2023/02/26 09:54:51;;;;;;;2.97;0.90;;;4.70;58.40;;;;;;5077671;28;20032;-67
2023/02/26 09:57:32;;;;;;;1.23;0.77;;;4.70;55.20;;;;;;5090713;28;20066;-67
2023/02/26 10:00:01;;;;;;;3.97;1.02;;;4.70;55.30;;;;;;5061437;28;20121;-67
2023/02/26 10:02:43;;;;;;;4.68;1.77;;;4.90;54.70;;;;;;5091022;28;20043;-67
2023/02/26 10:05:21;;;;;;;2.03;1.20;;;4.90;49.60;;;;;;5069113;28;20031;-67
2023/02/26 10:07:59;;;;;;;3.50;1.30;;;5.00;50.40;;;;;;5089202;28;20032;-67
2023/02/26 10:10:33;;;;;;;1.88;1.02;;;5.10;49.30;;;;;;5050846;28;20074;-67
2023/02/26 10:12:59;;;;;;;1.85;0.73;;;5.10;50.00;;;;;;5075440;28;20032;-66
2023/02/26 10:15:35;;;;;;;1.48;0.85;;;4.70;47.50;;;;;;5090424;28;20028;-66
2023/02/26 10:18:26;;;;;;;2.90;1.02;;;4.60;50.60;;;;;;5061138;28;20037;-67
2023/02/26 10:21:00;;;;;;;2.40;1.15;;;4.40;48.70;;;;;;5077365;28;20028;-67
2023/02/26 10:23:38;;;;;;;2.92;1.02;;;4.40;50.60;;;;;;5064347;28;20078;-67
2023/02/26 10:26:13;;;;;;;2.40;0.85;;;4.40;50.30;;;;;;5085200;28;20480;-67
2023/02/26 10:28:53;;;;;;;1.85;1.00;;;4.40;52.00;;;;;;5068291;28;20020;-67
2023/02/26 10:31:57;;;;;;;2.65;1.00;;;4.40;50.20;;;;;;5068001;28;20056;-67
2023/02/26 10:34:27;;;;;;;2.85;1.75;;;4.40;50.90;;;;;;5037056;28;20037;-66
2023/02/26 10:37:18;;;;;;;4.65;1.73;;;4.60;50.20;;;;;;5069854;28;20063;-67
2023/02/26 10:40:08;;;;;;;3.90;1.10;;;4.80;49.70;;;;;;5058981;28;20424;-67
2023/02/26 10:42:42;;;;;;;3.40;1.10;;;4.70;48.50;;;;;;5068421;28;20024;-66
2023/02/26 10:45:40;;;;;;;5.07;1.20;;;4.60;48.20;;;;;;5074203;28;20036;-66
2023/02/26 10:48:20;;;;;;;3.13;1.20;;;4.40;48.50;;;;;;5027393;28;20036;-66
2023/02/26 10:50:52;;;;;;;5.90;2.20;;;4.20;47.70;;;;;;5063380;28;20055;-66
2023/02/26 10:53:19;;;;;;;4.80;1.70;;;4.10;49.20;;;;;;5071022;28;20028;-66
2023/02/26 10:56:19;;;;;;;3.55;1.88;;;4.10;52.10;;;;;;5071443;28;20028;-66
2023/02/26 10:58:45;;;;;;;4.03;1.00;;;4.30;51.80;;;;;;5034712;28;20076;-66
2023/02/26 11:01:17;;;;;;;3.78;1.42;;;4.50;51.70;;;;;;5062873;28;20051;-66
2023/02/26 11:03:47;;;;;;;2.65;1.00;;;4.60;48.30;;;;;;5047719;28;20021;-66
2023/02/26 11:06:32;;;;;;;2.53;1.20;;;4.70;47.20;;;;;;5065901;28;20028;-66
2023/02/26 11:08:59;;;;;;;2.35;0.88;;;4.80;48.00;;;;;;5059211;28;20123;-65
2023/02/26 11:11:39;;;;;;;6.32;1.10;;;4.80;45.60;;;;;;5064771;28;20056;-65
2023/02/26 11:14:05;;;;;;;3.42;0.93;;;4.80;46.00;;;;;;5058141;28;20418;-65
2023/02/26 11:16:31;;;;;;;1.70;1.05;;;4.80;44.40;;;;;;5065521;28;20032;-66
2023/02/26 11:18:59;;;;;;;2.53;1.15;;;4.70;44.40;;;;;;5069223;28;20036;-65
2023/02/26 11:21:33;;;;;;;2.83;1.20;;;4.70;46.00;;;;;;5084303;28;20036;-66
2023/02/26 11:24:05;;;;;;;2.90;1.42;;;4.60;45.40;;;;;;5056925;28;20097;-66
2023/02/26 11:26:34;;;;;;;2.00;1.50;;;4.40;46.10;;;;;;5063066;28;20408;-66
2023/02/26 11:29:00;;;;;;;2.70;1.92;;;4.20;45.50;;;;;;5073846;28;20101;-65
2023/02/26 11:31:27;;;;;;;4.25;1.30;;;4.10;44.00;;;;;;5070704;28;20132;-66
2023/02/26 11:33:58;;;;;;;1.33;0.93;;;4.20;48.60;;;;;;5088090;28;20030;-65
2023/02/26 11:36:27;;;;;;;4.20;1.10;;;4.30;45.60;;;;;;5058976;28;20361;-66
2023/02/26 11:39:03;;;;;;;3.92;0.98;;;4.20;43.50;;;;;;5088189;28;20036;-65
2023/02/26 11:41:29;;;;;;;3.10;1.15;;;4.20;43.60;;;;;;5061193;28;20040;-65
2023/02/26 11:44:03;;;;;;;4.53;1.60;;;4.30;42.80;;;;;;5088049;28;20020;-66
2023/02/26 11:46:29;;;;;;;3.20;1.35;;;4.30;43.70;;;;;;5059759;28;20038;-65
2023/02/26 11:48:59;;;;;;;2.47;1.10;;;4.10;43.00;;;;;;5088480;28;20696;-65
2023/02/26 11:51:26;;;;;;;3.05;1.48;;;4.00;42.90;;;;;;5065901;28;20025;-65
2023/02/26 11:53:54;;;;;;;1.52;0.90;;;4.20;44.90;;;;;;5067434;28;20103;-65
2023/02/26 11:56:28;;;;;;;2.30;1.10;;;4.40;43.80;;;;;;5085048;28;20035;-65
2023/02/26 11:58:54;;;;;;;2.60;0.93;;;4.40;38.10;;;;;;5087842;28;20032;-66
2023/02/26 12:01:22;;;;;;;5.30;1.10;;;4.50;42.70;;;;;;5066190;28;20051;-65
2023/02/26 12:03:49;;;;;;;2.33;1.00;;;4.50;42.00;;;;;;5067808;28;20540;-65
2023/02/26 12:06:17;;;;;;;2.38;1.05;;;4.40;42.30;;;;;;5081420;28;20052;-64
2023/02/26 12:08:44;;;;;;;3.15;1.00;;;4.30;41.60;;;;;;5067626;28;20118;-64
2023/02/26 12:11:56;;;;;;;1.35;0.55;;;4.40;42.20;;;;;;5087050;28;20032;-65
2023/02/26 12:14:55;;;;;;;2.90;0.70;;;4.40;43.00;;;;;;5019266;28;20065;-63
2023/02/26 12:18:04;;;;;;;4.90;1.20;;;4.40;41.60;;;;;;5058209;28;20118;-64
2023/02/26 12:21:07;;;;;;;2.05;0.70;;;4.30;42.00;;;;;;5045833;28;20568;-64
2023/02/26 12:23:53;;;;;;;3.47;0.98;;;4.40;41.00;;;;;;5054475;28;20104;-64
2023/02/26 12:26:53;;;;;;;3.00;0.60;;;4.40;40.20;;;;;;5064610;28;20078;-65
2023/02/26 12:29:52;;;;;;;4.15;0.80;;;4.30;36.90;;;;;;5058723;28;20028;-67
2023/02/26 12:32:32;;;;;;;4.80;1.15;;;4.30;40.20;;;;;;5047267;28;20029;-55
2023/02/26 12:35:07;;;;;;;2.05;0.82;;;4.00;37.20;;;;;;5047446;28;20100;-55
2023/02/26 12:37:49;;;;;;;4.50;0.93;;;3.80;39.30;;;;;;5055950;28;20043;-53
2023/02/26 12:40:50;;;;;;;1.77;0.75;;;3.60;40.90;;;;;;5066186;28;20035;-55
2023/02/26 12:43:46;;;;;;;2.78;1.10;;;3.70;42.00;;;;;;5019940;28;20036;-55
2023/02/26 12:46:43;;;;;;;4.38;1.25;;;4.00;40.00;;;;;;5061014;28;20455;-55
2023/02/26 12:49:39;;;;;;;5.03;1.38;;;4.10;41.10;;;;;;5059826;28;20036;-55
2023/02/26 12:52:05;;;;;;;1.17;0.87;;;4.10;39.40;;;;;;5060010;28;20063;-54
2023/02/26 12:55:00;;;;;;;3.00;1.10;;;4.00;37.20;;;;;;5062708;28;20299;-52
2023/02/26 12:57:59;;;;;;;4.25;1.48;;;3.70;34.20;;;;;;5066787;28;20056;-55
2023/02/26 13:00:41;;;;;;;4.22;1.20;;;3.40;32.50;;;;;;5059968;28;20044;-56
2023/02/26 13:03:28;;;;;;;5.20;1.50;;;3.40;36.00;;;;;;5056894;28;20715;-53
2023/02/26 13:06:26;;;;;;;5.10;1.30;;;3.50;37.50;;;;;;5068674;28;20041;-53
2023/02/26 13:09:00;;;;;;;2.42;1.00;;;3.70;34.30;;;;;;5063793;28;20096;-56
2023/02/26 13:12:01;;;;;;;2.13;1.02;;;3.80;30.90;;;;;;5072454;28;20040;-54
2023/02/26 13:14:54;;;;;;;1.85;0.85;;;3.90;30.40;;;;;;5061871;28;20020;-55
2023/02/26 13:17:32;;;;;;;3.65;1.10;;;4.10;30.20;;;;;;5063601;28;20044;-55
2023/02/26 13:20:21;;;;;;;3.40;0.80;;;4.00;30.10;;;;;;5062476;28;20201;-56
2023/02/26 13:22:52;;;;;;;2.80;1.10;;;4.00;28.40;;;;;;5071838;28;20024;-54
2023/02/26 13:25:35;;;;;;;2.53;1.10;;;4.10;26.50;;;;;;5048376;28;20033;-55